createdAt,value
2023-04-16T00:01:59.827Z,7.26
2023-04-16T00:07:01.232Z,7.25
2023-04-16T00:12:02.975Z,7.24
2023-04-16T00:17:04.357Z,7.30
2023-04-16T00:22:05.671Z,7.28
2023-04-16T00:27:09.313Z,7.23
2023-04-16T00:32:10.666Z,7.29
2023-04-16T00:37:11.967Z,7.34
2023-04-16T00:42:13.376Z,7.29
2023-04-16T00:47:14.692Z,7.35
2023-04-16T00:52:16.003Z,7.31
2023-04-16T00:57:17.364Z,7.25
2023-04-16T01:02:18.932Z,7.29
2023-04-16T01:07:20.296Z,7.34
2023-04-16T01:12:21.816Z,7.21
2023-04-16T01:17:23.172Z,7.25
2023-04-16T01:22:24.563Z,7.36
2023-04-16T01:27:27.041Z,7.27
2023-04-16T01:32:31.461Z,7.28
2023-04-16T01:37:33.229Z,7.32
2023-04-16T01:42:34.589Z,7.28
2023-04-16T01:47:36.084Z,7.32
2023-04-16T01:52:37.511Z,7.39
2023-04-16T01:57:38.951Z,7.41
2023-04-16T02:02:40.728Z,7.31
2023-04-16T02:07:42.110Z,7.28
2023-04-16T02:12:43.416Z,7.29
2023-04-16T02:17:46.566Z,7.29
2023-04-16T02:22:48.124Z,7.26
2023-04-16T02:27:49.474Z,7.26
2023-04-16T02:32:50.888Z,7.19
2023-04-16T02:37:52.248Z,7.13
2023-04-16T02:42:54.053Z,7.12
2023-04-16T02:47:55.401Z,7.10
2023-04-16T02:52:56.816Z,7.06
2023-04-16T02:57:58.126Z,7.10
2023-04-16T03:02:59.505Z,7.13
2023-04-16T03:08:01.000Z,7.05
2023-04-16T03:13:02.442Z,7.07
2023-04-16T03:18:03.840Z,7.10
2023-04-16T03:23:05.236Z,7.15
2023-04-16T03:28:06.544Z,7.05
2023-04-16T03:33:07.896Z,6.93
2023-04-16T03:38:09.190Z,6.99
2023-04-16T03:43:10.504Z,7.02
2023-04-16T03:48:11.845Z,7.08
2023-04-16T03:53:13.310Z,7.04
2023-04-16T03:58:14.610Z,7.08
2023-04-16T04:03:17.925Z,7.06
2023-04-16T04:08:19.606Z,7.08
2023-04-16T04:13:21.035Z,7.17
2023-04-16T04:18:22.407Z,7.15
2023-04-16T04:23:24.031Z,7.15
2023-04-16T04:28:25.429Z,7.09
2023-04-16T04:33:26.827Z,7.18
2023-04-16T04:38:28.222Z,7.07
2023-04-16T04:43:29.597Z,7.13
2023-04-16T04:48:31.039Z,7.11
2023-04-16T04:53:32.400Z,7.08
2023-04-16T04:58:33.733Z,7.10
2023-04-16T05:03:35.417Z,7.11
2023-04-16T05:08:36.846Z,7.12
2023-04-16T05:13:38.282Z,7.13
2023-04-16T05:18:39.616Z,7.22
2023-04-16T05:23:40.939Z,7.22
2023-04-16T05:28:42.235Z,7.19
2023-04-16T05:33:43.533Z,7.15
2023-04-16T05:38:44.833Z,7.20
2023-04-16T05:43:46.113Z,7.19
2023-04-16T05:48:47.409Z,7.26
2023-04-16T05:53:48.717Z,7.29
2023-04-16T05:58:50.032Z,7.45
2023-04-16T06:03:51.515Z,7.47
2023-04-16T06:08:53.347Z,7.53
2023-04-16T06:13:54.651Z,7.53
2023-04-16T06:18:56.170Z,7.55
2023-04-16T06:23:57.544Z,7.55
2023-04-16T06:28:58.863Z,7.61
2023-04-16T06:34:00.365Z,7.69
2023-04-16T06:39:01.687Z,7.76
2023-04-16T06:44:03.041Z,7.71
2023-04-16T06:49:04.392Z,7.74
2023-04-16T06:54:05.709Z,7.77
2023-04-16T06:59:07.094Z,7.71
2023-04-16T07:04:09.190Z,7.72
2023-04-16T07:09:10.886Z,7.82
2023-04-16T07:14:12.657Z,7.86
2023-04-16T07:19:14.048Z,7.89
2023-04-16T07:24:15.739Z,7.77
2023-04-16T07:29:17.115Z,7.82
2023-04-16T07:34:18.447Z,7.93
2023-04-16T07:39:19.783Z,7.90
2023-04-16T07:44:21.276Z,7.98
2023-04-16T07:49:22.859Z,8.10
2023-04-16T07:54:24.207Z,8.07
2023-04-16T07:59:26.112Z,8.00
2023-04-16T08:04:27.899Z,8.11
2023-04-16T08:09:29.454Z,8.19
2023-04-16T08:14:30.893Z,8.22
2023-04-16T08:19:32.509Z,8.31
2023-04-16T08:24:33.835Z,8.26
2023-04-16T08:29:35.136Z,8.37
2023-04-16T08:34:37.083Z,8.41
2023-04-16T08:39:38.409Z,8.43
2023-04-16T08:44:49.008Z,8.59
2023-04-16T08:49:53.071Z,8.74
2023-04-16T08:54:58.463Z,8.84
2023-04-16T09:00:00.970Z,8.89
2023-04-16T09:05:03.455Z,8.93
2023-04-16T09:10:06.597Z,9.08
2023-04-16T09:15:09.676Z,8.88
2023-04-16T09:20:11.310Z,8.84
2023-04-16T09:25:12.989Z,8.94
2023-04-16T09:30:24.204Z,8.89
2023-04-16T09:35:25.877Z,8.70
2023-04-16T09:40:30.220Z,8.92
2023-04-16T09:45:32.703Z,8.94
2023-04-16T09:50:34.091Z,9.16
2023-04-16T09:55:35.728Z,9.18
2023-04-16T10:00:42.272Z,9.45
2023-04-16T10:05:45.071Z,9.22
2023-04-16T10:10:46.544Z,9.44
2023-04-16T10:15:48.347Z,9.57
2023-04-16T10:20:50.767Z,9.98
2023-04-16T10:25:53.299Z,10.86
2023-04-16T10:30:57.178Z,11.74
2023-04-16T10:36:12.261Z,11.82
2023-04-16T10:41:14.024Z,11.94
2023-04-16T10:46:19.271Z,11.56
2023-04-16T10:51:24.400Z,11.04
2023-04-16T10:56:26.957Z,10.73
2023-04-16T11:01:32.720Z,10.44
2023-04-16T11:06:34.166Z,9.89
2023-04-16T11:11:38.462Z,9.98
2023-04-16T11:16:40.658Z,10.01
2023-04-16T11:21:44.773Z,10.23
2023-04-16T11:26:50.887Z,10.23
2023-04-16T11:31:52.985Z,10.33
2023-04-16T11:36:54.391Z,10.18
2023-04-16T11:41:56.010Z,10.06
2023-04-16T11:46:57.460Z,10.05
2023-04-16T11:52:00.388Z,10.26
2023-04-16T11:57:04.319Z,10.42
2023-04-16T12:02:05.866Z,10.37
2023-04-16T12:07:08.229Z,10.32
2023-04-16T12:12:26.191Z,10.32
2023-04-16T12:17:27.584Z,10.28
2023-04-16T12:22:29.898Z,10.36
2023-04-16T12:28:04.524Z,10.47
2023-04-16T12:33:16.001Z,11.01
2023-04-16T12:38:17.425Z,11.71
2023-04-16T12:43:19.788Z,11.58
2023-04-16T12:48:21.293Z,11.53
2023-04-16T12:53:22.840Z,11.19
2023-04-16T12:58:24.178Z,10.97
2023-04-16T13:03:26.079Z,10.95
2023-04-16T13:08:27.595Z,11.17
2023-04-16T13:13:28.929Z,11.39
2023-04-16T13:18:30.446Z,11.66
2023-04-16T13:23:31.811Z,11.41
2023-04-16T13:28:33.256Z,11.29
2023-04-16T13:33:34.651Z,11.66
2023-04-16T13:38:36.153Z,11.74
2023-04-16T13:43:37.453Z,11.71
2023-04-16T13:48:38.898Z,11.68
2023-04-16T13:53:40.269Z,12.05
2023-04-16T13:58:41.746Z,12.84
2023-04-16T14:03:43.289Z,13.01
2023-04-16T14:08:45.508Z,12.47
2023-04-16T14:13:46.893Z,12.43
2023-04-16T14:18:48.313Z,12.57
2023-04-16T14:23:49.710Z,12.64
2023-04-16T14:28:51.111Z,12.77
2023-04-16T14:33:52.437Z,13.01
2023-04-16T14:38:53.760Z,12.77
2023-04-16T14:43:55.211Z,12.69
2023-04-16T14:48:56.528Z,12.80
2023-04-16T14:53:58.014Z,12.71
2023-04-16T14:58:59.345Z,12.78
2023-04-16T15:04:02.191Z,12.93
2023-04-16T15:09:04.200Z,13.01
2023-04-16T15:14:05.576Z,12.96
2023-04-16T15:19:06.927Z,12.76
2023-04-16T15:24:08.499Z,12.89
2023-04-16T15:29:10.573Z,12.82
2023-04-16T15:34:12.091Z,12.41
2023-04-16T15:39:13.786Z,12.35
2023-04-16T15:44:16.231Z,12.25
2023-04-16T15:49:17.603Z,12.08
2023-04-16T15:54:19.100Z,11.91
2023-04-16T15:59:20.597Z,11.63
2023-04-16T16:04:22.863Z,11.87
2023-04-16T16:09:28.002Z,12.04
2023-04-16T16:14:29.588Z,12.06
2023-04-16T16:19:33.023Z,12.18
2023-04-16T16:24:34.318Z,12.17
2023-04-16T16:29:35.717Z,12.22
2023-04-16T16:34:37.333Z,12.45
2023-04-16T16:39:39.071Z,12.44
2023-04-16T16:44:40.996Z,12.15
2023-04-16T16:49:43.526Z,12.02
2023-04-16T16:54:44.900Z,11.87
2023-04-16T16:59:49.105Z,11.61
2023-04-16T17:04:51.800Z,11.55
2023-04-16T17:09:53.301Z,11.30
2023-04-16T17:14:56.005Z,11.21
2023-04-16T17:19:57.392Z,11.14
2023-04-16T17:24:58.761Z,10.88
2023-04-16T17:30:01.727Z,10.78
2023-04-16T17:35:04.590Z,10.69
2023-04-16T17:40:07.667Z,10.53
2023-04-16T17:45:09.397Z,10.47
2023-04-16T17:50:11.456Z,10.48
2023-04-16T17:55:13.082Z,10.44
2023-04-16T18:00:14.564Z,10.46
2023-04-16T18:05:15.952Z,10.40
2023-04-16T18:10:17.267Z,10.35
2023-04-16T18:15:18.720Z,10.44
2023-04-16T18:20:20.526Z,10.25
2023-04-16T18:25:32.190Z,10.17
2023-04-16T18:30:35.514Z,10.13
2023-04-16T18:35:38.528Z,10.01
2023-04-16T18:40:40.576Z,9.99
2023-04-16T18:45:41.892Z,9.97
2023-04-16T18:50:43.198Z,9.96
2023-04-16T18:55:44.545Z,9.94
2023-04-16T19:00:46.223Z,9.86
2023-04-16T19:05:47.581Z,9.87
2023-04-16T19:10:49.560Z,9.85
2023-04-16T19:15:50.936Z,9.74
2023-04-16T19:20:58.291Z,9.68
2023-04-16T19:26:01.288Z,9.64
2023-04-16T19:31:02.668Z,9.65
2023-04-16T19:36:04.151Z,9.67
2023-04-16T19:41:05.477Z,9.70
2023-04-16T19:46:06.866Z,9.68
2023-04-16T19:51:08.187Z,9.69
2023-04-16T19:56:09.634Z,9.70
2023-04-16T20:01:11.403Z,9.64
2023-04-16T20:06:12.725Z,9.59
2023-04-16T20:11:14.068Z,9.60
2023-04-16T20:16:15.497Z,9.49
2023-04-16T20:21:16.853Z,9.50
2023-04-16T20:26:18.462Z,9.46
2023-04-16T20:31:19.920Z,9.50
2023-04-16T20:36:21.582Z,9.41
2023-04-16T20:41:25.075Z,9.38
2023-04-16T20:46:30.034Z,9.37
2023-04-16T20:51:31.543Z,9.39
2023-04-16T20:56:32.856Z,9.41
2023-04-16T21:01:34.394Z,9.43
2023-04-16T21:06:38.343Z,9.37
2023-04-16T21:11:39.661Z,9.38
2023-04-16T21:16:41.023Z,9.40
2023-04-16T21:21:42.626Z,9.48
2023-04-16T21:26:44.057Z,9.55
2023-04-16T21:31:45.501Z,9.60
2023-04-16T21:36:46.833Z,9.55
2023-04-16T21:41:48.251Z,9.57
2023-04-16T21:46:49.904Z,9.48
2023-04-16T21:51:58.877Z,9.53
2023-04-16T21:57:00.238Z,9.59
2023-04-16T22:02:01.657Z,9.55
2023-04-16T22:07:03.791Z,9.53
2023-04-16T22:12:06.924Z,9.57
2023-04-16T22:17:09.435Z,9.54
2023-04-16T22:22:10.913Z,9.69
2023-04-16T22:27:12.233Z,9.65
2023-04-16T22:32:13.761Z,9.75
2023-04-16T22:37:15.608Z,9.63
2023-04-16T22:42:16.914Z,9.49
2023-04-16T22:47:18.256Z,9.57
2023-04-16T22:52:19.618Z,9.45
2023-04-16T22:57:24.808Z,9.46
2023-04-16T23:02:26.326Z,9.42
2023-04-16T23:07:27.718Z,9.39
2023-04-16T23:12:29.346Z,9.49
2023-04-16T23:17:30.744Z,9.47
2023-04-16T23:22:32.128Z,9.36
2023-04-16T23:27:33.516Z,9.39
2023-04-16T23:32:35.178Z,9.36
2023-04-16T23:37:36.620Z,9.38
2023-04-16T23:42:37.985Z,9.20
2023-04-16T23:47:40.263Z,9.23
2023-04-16T23:52:41.667Z,9.19
2023-04-16T23:57:42.974Z,9.14
